createdAt,value
2023-05-10T00:09:13.973Z,99
2023-05-10T00:29:55.065Z,99
2023-05-10T00:59:06.997Z,99
2023-05-10T02:03:36.010Z,99
2023-05-10T02:07:15.178Z,99
2023-05-10T02:09:41.117Z,99
2023-05-10T02:12:07.898Z,99
2023-05-10T02:14:33.140Z,99
2023-05-10T02:15:46.314Z,99
2023-05-10T02:19:25.275Z,99
2023-05-10T02:21:51.779Z,99
2023-05-10T02:23:04.113Z,99
2023-05-10T02:24:17.513Z,99
2023-05-10T02:26:43.149Z,99
2023-05-10T02:31:35.372Z,99
2023-05-10T02:32:48.592Z,99
2023-05-10T02:34:01.277Z,99
2023-05-10T02:40:06.287Z,99
2023-05-10T02:41:19.276Z,99
2023-05-10T02:42:32.297Z,99
2023-05-10T02:46:11.725Z,99
2023-05-10T02:47:24.240Z,99
2023-05-10T02:48:37.839Z,99
2023-05-10T02:49:50.586Z,99
2023-05-10T02:51:03.210Z,99
2023-05-10T02:52:16.264Z,99
2023-05-10T02:54:42.874Z,99
2023-05-10T02:55:55.351Z,99
2023-05-10T02:57:08.157Z,99
2023-05-10T02:59:34.276Z,99
2023-05-10T03:00:47.585Z,99
2023-05-10T03:03:13.316Z,99
2023-05-10T03:05:39.382Z,99
2023-05-10T03:06:52.744Z,99
2023-05-10T03:08:05.111Z,99
2023-05-10T03:09:18.304Z,99
2023-05-10T03:11:44.297Z,99
2023-05-10T03:12:57.144Z,99
2023-05-10T03:48:14.007Z,99
2023-05-10T03:51:53.696Z,99
2023-05-10T03:53:06.107Z,99
2023-05-10T03:54:19.275Z,99
2023-05-10T03:55:32.268Z,99
2023-05-10T03:56:45.437Z,99
2023-05-10T03:57:58.275Z,99
2023-05-10T03:59:11.326Z,99
2023-05-10T04:00:24.006Z,99
2023-05-10T04:27:10.089Z,99
2023-05-10T04:38:07.043Z,99
2023-05-10T04:41:46.184Z,99
2023-05-10T04:42:59.040Z,99
2023-05-10T04:49:04.707Z,99
2023-05-10T04:50:17.563Z,99
2023-05-10T04:51:30.383Z,99
2023-05-10T05:21:55.290Z,99
2023-05-10T05:23:08.308Z,99
2023-05-10T05:24:21.491Z,99
2023-05-10T05:25:34.351Z,99
2023-05-10T05:26:47.343Z,99
2023-05-10T05:28:00.307Z,99
2023-05-10T05:29:13.319Z,99
2023-05-10T05:30:26.285Z,99
2023-05-10T05:31:39.331Z,99
2023-05-10T05:32:52.319Z,99
2023-05-10T05:34:05.309Z,99
2023-05-10T05:35:18.490Z,99
2023-05-10T05:36:31.286Z,99
2023-05-10T05:37:44.393Z,99
2023-05-10T05:38:57.301Z,99
2023-05-10T05:40:10.500Z,99
2023-05-10T05:41:23.314Z,99
2023-05-10T05:42:36.341Z,99
2023-05-10T05:43:49.321Z,99
2023-05-10T05:45:02.351Z,99
2023-05-10T05:46:15.349Z,99
2023-05-10T05:47:28.312Z,99
2023-05-10T05:48:41.368Z,99
2023-05-10T05:49:54.344Z,99
2023-05-10T05:51:08.300Z,99
2023-05-10T05:52:20.300Z,99
2023-05-10T05:53:33.330Z,99
2023-05-10T05:54:46.324Z,99
2023-05-10T05:55:59.526Z,99
2023-05-10T05:57:12.318Z,99
2023-05-10T05:58:25.479Z,99
2023-05-10T05:59:38.295Z,99
2023-05-10T06:00:51.295Z,99
2023-05-10T06:02:04.461Z,99
2023-05-10T06:03:17.371Z,99
2023-05-10T06:04:30.329Z,99
2023-05-10T06:05:43.291Z,99
2023-05-10T06:06:56.096Z,99
2023-05-10T06:08:09.344Z,99
2023-05-10T06:09:22.456Z,99
2023-05-10T06:10:35.380Z,99
2023-05-10T06:11:48.288Z,99
2023-05-10T06:13:01.306Z,99
2023-05-10T06:14:14.412Z,99
2023-05-10T06:15:27.280Z,99
2023-05-10T06:16:40.353Z,99
2023-05-10T06:17:53.330Z,99
2023-05-10T06:19:06.303Z,99
2023-05-10T06:20:19.281Z,99
2023-05-10T06:21:32.294Z,99
2023-05-10T06:22:45.324Z,99
2023-05-10T06:23:57.652Z,99
2023-05-10T06:25:11.289Z,99
2023-05-10T06:26:24.337Z,99
2023-05-10T06:27:37.362Z,99
2023-05-10T06:28:50.357Z,99
2023-05-10T06:30:12.752Z,99
2023-05-10T06:31:16.351Z,99
2023-05-10T06:32:29.428Z,99
2023-05-10T06:33:42.306Z,99
2023-05-10T06:34:55.321Z,99
2023-05-10T06:36:08.322Z,99
2023-05-10T06:37:21.283Z,99
2023-05-10T06:38:34.305Z,99
2023-05-10T06:39:47.299Z,99
2023-05-10T06:41:00.468Z,99
2023-05-10T06:42:13.301Z,99
2023-05-10T06:43:26.299Z,99
2023-05-10T06:44:39.294Z,99
2023-05-10T06:45:52.191Z,99
2023-05-10T06:47:05.281Z,99
2023-05-10T06:49:31.293Z,99
2023-05-10T06:50:44.493Z,99
2023-05-10T06:51:57.288Z,99
2023-05-10T06:53:10.299Z,99
2023-05-10T06:54:23.319Z,99
2023-05-10T06:55:36.328Z,99
2023-05-10T06:56:49.327Z,99
2023-05-10T06:58:02.495Z,99
2023-05-10T06:59:15.477Z,99
2023-05-10T07:00:28.307Z,99
2023-05-10T07:01:41.274Z,99
2023-05-10T07:02:54.340Z,99
2023-05-10T09:03:21.334Z,99
2023-05-10T09:05:47.702Z,99
2023-05-10T09:10:39.232Z,99
2023-05-10T09:11:52.944Z,99
2023-05-10T09:17:57.277Z,99
2023-05-10T09:25:15.262Z,99
2023-05-10T09:26:28.477Z,99
2023-05-10T09:32:33.358Z,99
2023-05-10T09:34:59.409Z,99
2023-05-10T09:38:38.034Z,99
2023-05-10T09:39:51.156Z,99
2023-05-10T09:41:04.065Z,99
2023-05-10T09:42:17.257Z,99
2023-05-10T09:43:30.297Z,99
2023-05-10T09:45:56.156Z,99
2023-05-10T09:47:09.363Z,99
2023-05-10T09:48:22.203Z,99
2023-05-10T09:50:48.476Z,99
2023-05-10T09:52:01.127Z,99
2023-05-10T09:53:14.416Z,99
2023-05-10T09:54:26.971Z,99
2023-05-10T09:55:40.826Z,99
2023-05-10T09:58:06.269Z,99
2023-05-10T10:01:45.286Z,99
2023-05-10T10:04:11.618Z,99
2023-05-10T10:05:24.178Z,99
2023-05-10T10:06:37.362Z,99
2023-05-10T10:10:16.315Z,99
2023-05-10T10:11:29.135Z,99
2023-05-10T10:12:42.086Z,99
2023-05-10T10:15:08.102Z,99
2023-05-10T10:17:34.075Z,99
2023-05-10T10:18:47.308Z,99
2023-05-10T10:20:00.261Z,99
2023-05-10T10:21:13.380Z,99
2023-05-10T10:22:26.614Z,99
2023-05-10T10:23:39.305Z,99
2023-05-10T10:24:52.471Z,99
2023-05-10T10:26:05.311Z,99
2023-05-10T10:27:18.331Z,99
2023-05-10T10:28:31.252Z,99
2023-05-10T10:29:44.268Z,99
2023-05-10T10:30:56.987Z,99
2023-05-10T10:32:10.297Z,99
2023-05-10T10:33:28.657Z,99
2023-05-10T10:34:36.694Z,99
2023-05-10T10:35:49.281Z,99
2023-05-10T10:37:02.157Z,99
2023-05-10T10:38:15.689Z,99
2023-05-10T10:39:28.360Z,99
2023-05-10T10:40:41.316Z,99
2023-05-10T10:41:54.374Z,99
2023-05-10T10:43:07.307Z,99
2023-05-10T10:44:21.236Z,99
2023-05-10T10:45:33.152Z,99
2023-05-10T10:46:46.183Z,99
2023-05-10T10:47:59.331Z,99
2023-05-10T10:49:12.356Z,99
2023-05-10T10:50:25.283Z,99
2023-05-10T10:51:38.353Z,99
2023-05-10T10:52:51.166Z,99
2023-05-10T10:54:04.298Z,99
2023-05-10T10:55:17.427Z,99
2023-05-10T10:56:30.002Z,99
2023-05-10T10:57:43.287Z,99
2023-05-10T10:58:56.449Z,99
2023-05-10T11:00:09.174Z,99
2023-05-10T11:01:22.736Z,99
2023-05-10T11:02:35.331Z,99
2023-05-10T11:03:48.505Z,99
2023-05-10T11:05:01.122Z,99
2023-05-10T11:06:14.129Z,99
2023-05-10T11:07:27.183Z,99
2023-05-10T11:08:40.194Z,99
2023-05-10T11:09:53.314Z,99
2023-05-10T11:11:06.285Z,99
2023-05-10T11:12:19.304Z,99
2023-05-10T11:13:32.253Z,99
2023-05-10T11:14:45.292Z,99
2023-05-10T11:15:58.295Z,99
2023-05-10T11:17:11.273Z,99
2023-05-10T11:18:24.396Z,99
2023-05-10T11:19:37.410Z,99
2023-05-10T11:20:50.522Z,99
2023-05-10T11:22:03.522Z,99
2023-05-10T11:23:16.294Z,99
2023-05-10T11:24:29.322Z,99
2023-05-10T11:25:42.293Z,99
2023-05-10T11:26:55.326Z,99
2023-05-10T11:28:08.289Z,99
2023-05-10T11:29:21.279Z,99
2023-05-10T11:30:34.173Z,99
2023-05-10T11:31:47.251Z,99
2023-05-10T11:33:00.496Z,99
2023-05-10T11:34:13.303Z,99
2023-05-10T11:35:25.917Z,99
2023-05-10T11:36:39.144Z,99
2023-05-10T11:37:52.501Z,99
2023-05-10T11:39:05.343Z,99
2023-05-10T11:40:18.488Z,99
2023-05-10T11:41:31.261Z,99
2023-05-10T11:42:44.483Z,99
2023-05-10T11:43:57.281Z,99
2023-05-10T11:45:10.464Z,99
2023-05-10T11:46:23.363Z,99
2023-05-10T11:47:36.308Z,99
2023-05-10T11:48:49.248Z,99
2023-05-10T11:50:02.940Z,99
2023-05-10T11:51:15.655Z,99
2023-05-10T11:52:28.507Z,99
2023-05-10T11:53:41.518Z,99
2023-05-10T11:54:54.234Z,99
2023-05-10T11:56:08.298Z,99
2023-05-10T11:57:20.327Z,99
2023-05-10T11:58:33.136Z,99
2023-05-10T11:59:46.256Z,99
2023-05-10T12:00:59.243Z,99
2023-05-10T12:02:12.273Z,99
2023-05-10T12:03:25.336Z,99
2023-05-10T12:04:38.276Z,99
2023-05-10T12:05:51.809Z,99
2023-05-10T12:07:04.247Z,99
2023-05-10T12:08:17.257Z,99
2023-05-10T12:09:42.980Z,99
2023-05-10T12:10:44.021Z,99
2023-05-10T12:11:56.244Z,99
2023-05-10T12:13:09.099Z,99
2023-05-10T12:14:22.197Z,99
2023-05-10T12:15:35.222Z,98
2023-05-10T12:16:48.295Z,97
2023-05-10T12:18:01.141Z,97
2023-05-10T12:19:14.773Z,96
2023-05-10T12:20:27.187Z,96
2023-05-10T12:21:40.356Z,95
2023-05-10T12:22:53.230Z,95
2023-05-10T12:24:06.280Z,95
2023-05-10T12:25:19.226Z,95
2023-05-10T12:26:31.920Z,95
2023-05-10T12:27:45.105Z,95
2023-05-10T12:28:58.241Z,95
2023-05-10T12:30:11.254Z,96
2023-05-10T12:31:24.266Z,96
2023-05-10T12:32:37.253Z,95
2023-05-10T12:33:50.237Z,95
2023-05-10T12:35:03.306Z,95
2023-05-10T12:36:16.268Z,94
2023-05-10T12:37:29.266Z,94
2023-05-10T12:38:42.238Z,94
2023-05-10T12:39:55.267Z,94
2023-05-10T12:41:08.269Z,93
2023-05-10T12:42:21.282Z,93
2023-05-10T12:43:34.201Z,93
2023-05-10T12:44:47.102Z,93
2023-05-10T12:46:00.271Z,93
2023-05-10T12:47:13.345Z,94
2023-05-10T12:48:26.240Z,94
2023-05-10T12:49:39.217Z,94
2023-05-10T12:50:52.207Z,93
2023-05-10T12:52:05.782Z,93
2023-05-10T12:53:18.225Z,92
2023-05-10T12:54:31.245Z,90
2023-05-10T12:55:44.441Z,90
2023-05-10T12:56:57.318Z,91
2023-05-10T13:27:21.912Z,91
2023-05-10T13:41:57.960Z,92
2023-05-10T13:44:24.574Z,92
2023-05-10T13:46:50.869Z,92
2023-05-10T13:51:42.064Z,91
2023-05-10T13:54:08.106Z,91
2023-05-10T13:56:33.896Z,91
2023-05-10T13:57:47.199Z,91
2023-05-10T13:59:00.361Z,91
2023-05-10T14:00:12.934Z,91
2023-05-10T14:01:26.323Z,90
2023-05-10T14:02:39.096Z,89
2023-05-10T14:03:52.103Z,89
2023-05-10T14:05:05.306Z,89
2023-05-10T14:06:18.232Z,89
2023-05-10T14:07:31.198Z,89
2023-05-10T14:08:44.351Z,89
2023-05-10T14:09:57.225Z,88
2023-05-10T14:11:10.536Z,88
2023-05-10T14:12:23.029Z,88
2023-05-10T14:13:36.097Z,87
2023-05-10T14:14:49.174Z,85
2023-05-10T14:16:02.225Z,86
2023-05-10T14:17:15.198Z,87
2023-05-10T14:18:28.192Z,87
2023-05-10T14:20:54.249Z,86
2023-05-10T14:22:07.521Z,86
2023-05-10T14:23:20.051Z,87
2023-05-10T14:24:33.184Z,88
2023-05-10T14:26:59.163Z,88
2023-05-10T14:29:24.955Z,88
2023-05-10T14:30:38.047Z,88
2023-05-10T14:31:51.216Z,88
2023-05-10T14:33:04.352Z,88
2023-05-10T14:34:17.298Z,89
2023-05-10T14:35:30.186Z,89
2023-05-10T14:36:43.502Z,89
2023-05-10T14:37:56.340Z,90
2023-05-10T14:39:09.231Z,89
2023-05-10T14:40:22.217Z,89
2023-05-10T14:41:35.090Z,89
2023-05-10T14:42:48.185Z,89
2023-05-10T14:44:01.195Z,89
2023-05-10T14:45:14.592Z,90
2023-05-10T14:46:27.262Z,90
2023-05-10T14:47:40.396Z,89
2023-05-10T14:48:53.223Z,89
2023-05-10T14:50:06.203Z,89
2023-05-10T14:51:19.179Z,89
2023-05-10T14:52:35.056Z,90
2023-05-10T14:53:45.164Z,90
2023-05-10T14:54:58.190Z,90
2023-05-10T14:56:11.214Z,90
2023-05-10T14:57:24.191Z,90
2023-05-10T14:58:37.225Z,90
2023-05-10T14:59:50.752Z,90
2023-05-10T15:01:03.694Z,90
2023-05-10T15:02:16.706Z,88
2023-05-10T15:03:29.907Z,88
2023-05-10T15:04:42.707Z,89
2023-05-10T15:05:55.694Z,88
2023-05-10T15:07:08.713Z,88
2023-05-10T15:08:21.704Z,88
2023-05-10T15:09:35.293Z,88
2023-05-10T15:10:47.506Z,88
2023-05-10T15:13:13.861Z,87
2023-05-10T15:14:26.496Z,85
2023-05-10T15:20:31.737Z,84
2023-05-10T15:21:44.584Z,84
2023-05-10T15:22:57.676Z,84
2023-05-10T15:24:10.692Z,84
2023-05-10T15:25:23.812Z,84
2023-05-10T15:26:36.818Z,85
2023-05-10T15:29:02.534Z,85
2023-05-10T15:31:28.787Z,84
2023-05-10T15:32:41.719Z,84
2023-05-10T15:33:54.407Z,83
2023-05-10T15:36:20.696Z,83
2023-05-10T15:37:33.679Z,83
2023-05-10T15:38:46.747Z,83
2023-05-10T15:39:59.692Z,83
2023-05-10T15:41:12.642Z,83
2023-05-10T15:42:25.712Z,83
2023-05-10T15:43:38.787Z,84
2023-05-10T15:44:51.575Z,84
2023-05-10T15:46:04.711Z,84
2023-05-10T15:47:17.707Z,84
2023-05-10T15:48:30.522Z,84
2023-05-10T15:49:43.640Z,84
2023-05-10T15:50:56.628Z,84
2023-05-10T15:52:09.714Z,83
2023-05-10T15:53:23.018Z,83
2023-05-10T15:54:35.809Z,83
2023-05-10T15:55:48.690Z,83
2023-05-10T15:57:02.018Z,82
2023-05-10T16:00:40.712Z,82
2023-05-10T16:03:06.724Z,83
2023-05-10T16:04:19.697Z,83
2023-05-10T16:05:32.708Z,83
2023-05-10T16:06:45.670Z,83
2023-05-10T16:07:58.641Z,83
2023-05-10T16:09:11.671Z,83
2023-05-10T16:10:24.632Z,83
2023-05-10T16:11:37.662Z,83
2023-05-10T16:12:50.815Z,83
2023-05-10T16:14:04.202Z,83
2023-05-10T16:15:17.005Z,82
2023-05-10T16:16:29.732Z,82
2023-05-10T16:17:42.675Z,82
2023-05-10T16:18:55.852Z,81
2023-05-10T16:20:08.726Z,81
2023-05-10T16:21:21.764Z,82
2023-05-10T16:22:34.799Z,82
2023-05-10T16:23:47.710Z,82
2023-05-10T16:25:00.870Z,82
2023-05-10T16:26:13.715Z,82
2023-05-10T16:27:26.670Z,82
2023-05-10T16:28:39.705Z,82
2023-05-10T16:29:52.527Z,82
2023-05-10T16:31:05.728Z,81
2023-05-10T16:32:18.777Z,79
2023-05-10T16:33:31.693Z,78
2023-05-10T16:34:44.708Z,77
2023-05-10T16:35:57.723Z,77
2023-05-10T16:37:10.823Z,77
2023-05-10T16:38:23.750Z,77
2023-05-10T16:39:36.749Z,77
2023-05-10T16:40:50.045Z,76
2023-05-10T16:42:02.690Z,76
2023-05-10T16:43:15.721Z,75
2023-05-10T16:44:28.720Z,75
2023-05-10T16:45:41.702Z,75
2023-05-10T16:46:53.976Z,75
2023-05-10T16:48:07.733Z,75
2023-05-10T16:49:20.756Z,75
2023-05-10T16:50:33.758Z,75
2023-05-10T16:51:46.776Z,75
2023-05-10T16:52:59.803Z,74
2023-05-10T16:54:12.697Z,74
2023-05-10T16:55:26.724Z,75
2023-05-10T16:56:38.727Z,75
2023-05-10T16:57:51.728Z,75
2023-05-10T16:59:04.740Z,75
2023-05-10T17:00:17.669Z,75
2023-05-10T17:01:30.806Z,75
2023-05-10T17:02:43.721Z,76
2023-05-10T17:03:56.963Z,76
2023-05-10T17:05:09.723Z,76
2023-05-10T17:06:22.734Z,77
2023-05-10T17:07:35.744Z,77
2023-05-10T17:08:48.725Z,77
2023-05-10T17:10:01.687Z,77
2023-05-10T17:11:14.725Z,77
2023-05-10T17:12:27.691Z,77
2023-05-10T17:13:40.756Z,77
2023-05-10T17:14:53.690Z,77
2023-05-10T17:16:06.755Z,77
2023-05-10T17:17:19.655Z,78
2023-05-10T17:18:32.688Z,78
2023-05-10T17:19:45.741Z,78
2023-05-10T17:20:58.655Z,78
2023-05-10T17:22:11.689Z,78
2023-05-10T17:23:24.695Z,79
2023-05-10T17:24:37.688Z,78
2023-05-10T17:25:50.713Z,78
2023-05-10T17:27:03.683Z,78
2023-05-10T17:28:16.680Z,78
2023-05-10T17:29:29.680Z,78
2023-05-10T17:30:42.681Z,77
2023-05-10T17:31:55.870Z,77
2023-05-10T17:33:08.794Z,77
2023-05-10T17:34:21.711Z,78
2023-05-10T17:35:34.703Z,77
2023-05-10T17:36:47.663Z,76
2023-05-10T17:38:00.662Z,76
2023-05-10T17:39:13.770Z,76
2023-05-10T17:40:26.657Z,76
2023-05-10T17:41:39.650Z,76
2023-05-10T17:42:52.678Z,76
2023-05-10T17:44:05.643Z,76
2023-05-10T17:45:18.947Z,76
2023-05-10T17:46:31.639Z,76
2023-05-10T17:47:44.689Z,76
2023-05-10T17:48:57.573Z,76
2023-05-10T17:50:10.665Z,75
2023-05-10T17:51:23.590Z,76
2023-05-10T17:52:36.564Z,76
2023-05-10T17:53:49.574Z,75
2023-05-10T17:55:02.536Z,76
2023-05-10T17:56:15.570Z,76
2023-05-10T17:57:28.632Z,75
2023-05-10T17:58:41.559Z,76
2023-05-10T17:59:54.572Z,75
2023-05-10T18:01:07.675Z,75
2023-05-10T18:02:20.661Z,75
2023-05-10T18:03:33.565Z,76
2023-05-10T18:04:46.593Z,76
2023-05-10T18:05:59.645Z,76
2023-05-10T18:07:12.611Z,76
2023-05-10T18:08:25.649Z,75
2023-05-10T18:09:38.575Z,75
2023-05-10T18:10:51.622Z,75
2023-05-10T18:12:04.583Z,75
2023-05-10T18:13:17.669Z,75
2023-05-10T18:14:40.404Z,75
2023-05-10T18:15:43.590Z,75
2023-05-10T18:16:56.582Z,76
2023-05-10T18:18:09.627Z,76
2023-05-10T18:19:22.563Z,76
2023-05-10T18:20:35.652Z,76
2023-05-10T18:21:48.661Z,76
2023-05-10T18:23:01.519Z,76
2023-05-10T18:24:16.704Z,76
2023-05-10T18:25:27.623Z,77
2023-05-10T18:26:40.664Z,77
2023-05-10T18:27:53.560Z,77
2023-05-10T18:29:06.744Z,77
2023-05-10T18:30:19.565Z,77
2023-05-10T18:31:32.588Z,78
2023-05-10T18:32:45.583Z,77
2023-05-10T18:33:58.591Z,78
2023-05-10T18:35:11.548Z,78
2023-05-10T18:36:24.559Z,77
2023-05-10T18:37:37.569Z,77
2023-05-10T18:38:50.551Z,77
2023-05-10T18:40:03.575Z,78
2023-05-10T18:41:16.592Z,78
2023-05-10T18:42:29.719Z,78
2023-05-10T18:43:42.546Z,78
2023-05-10T18:44:55.579Z,78
2023-05-10T18:46:08.557Z,78
2023-05-10T18:47:21.637Z,78
2023-05-10T18:48:34.702Z,78
2023-05-10T18:49:47.550Z,79
2023-05-10T18:51:00.674Z,79
2023-05-10T18:52:13.558Z,79
2023-05-10T18:53:26.551Z,79
2023-05-10T18:54:39.596Z,80
2023-05-10T18:55:52.537Z,80
2023-05-10T18:57:05.577Z,80
2023-05-10T18:58:18.523Z,80
2023-05-10T18:59:31.513Z,80
2023-05-10T19:00:44.528Z,80
2023-05-10T19:01:58.536Z,80
2023-05-10T19:03:10.526Z,80
2023-05-10T19:04:23.560Z,80
2023-05-10T19:05:36.537Z,80
2023-05-10T19:06:49.389Z,81
2023-05-10T19:08:02.536Z,82
2023-05-10T19:09:15.552Z,82
2023-05-10T19:10:28.538Z,82
2023-05-10T19:11:41.564Z,82
2023-05-10T19:12:54.570Z,82
2023-05-10T19:14:07.082Z,82
2023-05-10T19:15:23.733Z,83
2023-05-10T19:17:46.554Z,83
2023-05-10T19:18:59.578Z,83
2023-05-10T19:20:12.645Z,83
2023-05-10T19:21:26.093Z,83
2023-05-10T19:22:49.284Z,83
2023-05-10T19:23:51.547Z,83
2023-05-10T19:25:04.591Z,83
2023-05-10T19:26:17.621Z,83
2023-05-10T19:27:33.582Z,83
2023-05-10T19:28:43.587Z,83
2023-05-10T19:29:56.652Z,83
2023-05-10T19:31:09.788Z,83
2023-05-10T19:32:23.079Z,83
2023-05-10T19:33:36.143Z,84
2023-05-10T19:34:48.513Z,84
2023-05-10T19:36:01.487Z,84
2023-05-10T19:37:14.644Z,84
2023-05-10T19:38:27.531Z,84
2023-05-10T19:39:40.511Z,84
2023-05-10T19:40:53.551Z,85
2023-05-10T19:42:06.583Z,85
2023-05-10T19:43:19.762Z,85
2023-05-10T19:44:32.543Z,85
2023-05-10T19:45:45.545Z,85
2023-05-10T19:46:58.484Z,85
2023-05-10T19:48:12.881Z,85
2023-05-10T19:49:24.310Z,86
2023-05-10T19:50:37.566Z,86
2023-05-10T19:51:50.532Z,86
2023-05-10T19:53:03.517Z,86
2023-05-10T19:54:16.533Z,87
2023-05-10T19:55:29.544Z,87
2023-05-10T19:56:42.606Z,86
2023-05-10T19:57:55.534Z,87
2023-05-10T19:59:08.574Z,87
2023-05-10T20:00:21.645Z,87
2023-05-10T20:01:34.630Z,87
2023-05-10T20:02:47.756Z,87
2023-05-10T20:04:00.583Z,88
2023-05-10T20:05:13.532Z,88
2023-05-10T20:06:26.602Z,88
2023-05-10T20:07:39.521Z,88
2023-05-10T20:08:52.521Z,88
2023-05-10T20:10:05.516Z,88
2023-05-10T20:11:18.530Z,88
2023-05-10T20:12:31.498Z,88
2023-05-10T20:13:44.663Z,88
2023-05-10T20:14:57.592Z,88
2023-05-10T20:16:10.646Z,88
2023-05-10T20:17:23.630Z,89
2023-05-10T20:18:36.546Z,89
2023-05-10T20:19:49.545Z,89
2023-05-10T20:21:02.556Z,89
2023-05-10T20:22:15.503Z,89
2023-05-10T20:23:28.549Z,89
2023-05-10T20:24:41.548Z,89
2023-05-10T20:25:54.509Z,89
2023-05-10T20:27:07.510Z,89
2023-05-10T20:28:20.684Z,89
2023-05-10T20:29:33.523Z,89
2023-05-10T20:30:46.547Z,89
2023-05-10T20:31:59.693Z,89
2023-05-10T20:33:12.581Z,89
2023-05-10T20:34:25.522Z,89
2023-05-10T20:35:38.605Z,89
2023-05-10T20:36:51.522Z,89
2023-05-10T20:38:04.637Z,89
2023-05-10T20:39:17.543Z,90
2023-05-10T20:40:30.533Z,90
2023-05-10T20:41:43.587Z,90
2023-05-10T20:42:56.531Z,90
2023-05-10T20:44:09.592Z,90
2023-05-10T20:45:22.507Z,90
2023-05-10T20:46:35.630Z,90
2023-05-10T20:47:48.714Z,90
2023-05-10T20:49:01.495Z,90
2023-05-10T20:50:14.538Z,90
2023-05-10T20:51:27.560Z,90
2023-05-10T20:52:40.520Z,91
2023-05-10T20:53:53.543Z,91
2023-05-10T20:55:06.538Z,92
2023-05-10T20:56:19.548Z,92
2023-05-10T20:57:32.532Z,92
2023-05-10T20:58:45.526Z,92
2023-05-10T20:59:58.255Z,92
2023-05-10T21:01:11.589Z,92
2023-05-10T21:02:24.590Z,92
2023-05-10T21:03:37.567Z,92
2023-05-10T21:04:50.594Z,92
2023-05-10T21:06:03.525Z,92
2023-05-10T21:07:16.668Z,92
2023-05-10T21:08:29.560Z,92
2023-05-10T21:09:42.544Z,92
2023-05-10T21:10:55.545Z,92
2023-05-10T21:12:08.567Z,92
2023-05-10T21:13:21.539Z,92
2023-05-10T21:14:34.561Z,93
2023-05-10T21:15:47.552Z,93
2023-05-10T21:17:00.618Z,93
2023-05-10T21:18:13.530Z,93
2023-05-10T21:19:26.535Z,93
2023-05-10T21:20:39.494Z,93
2023-05-10T21:21:52.528Z,93
2023-05-10T21:23:05.502Z,93
2023-05-10T21:24:18.582Z,93
2023-05-10T21:25:31.523Z,93
2023-05-10T21:26:44.519Z,93
2023-05-10T21:27:57.508Z,93
2023-05-10T21:29:10.515Z,93
2023-05-10T21:30:23.537Z,93
2023-05-10T21:31:36.541Z,93
2023-05-10T21:32:49.529Z,93
2023-05-10T21:34:02.516Z,93
2023-05-10T21:35:15.548Z,93
2023-05-10T21:36:28.660Z,93
2023-05-10T21:37:41.703Z,93
2023-05-10T21:38:54.554Z,94
2023-05-10T21:40:07.524Z,94
2023-05-10T21:41:20.497Z,94
2023-05-10T21:42:33.513Z,94
2023-05-10T21:43:46.517Z,94
2023-05-10T21:44:59.602Z,94
2023-05-10T21:46:12.746Z,94
2023-05-10T21:47:25.518Z,94
2023-05-10T21:48:38.540Z,94
2023-05-10T21:49:51.547Z,94
2023-05-10T21:51:04.516Z,94
2023-05-10T21:52:17.565Z,94
2023-05-10T21:53:30.568Z,94
2023-05-10T21:54:43.522Z,94
2023-05-10T21:55:56.517Z,94
2023-05-10T21:57:09.696Z,94
2023-05-10T21:58:22.021Z,94
2023-05-10T21:59:35.530Z,94
2023-05-10T22:00:48.664Z,94
2023-05-10T22:02:01.533Z,94
2023-05-10T22:03:14.691Z,94
2023-05-10T22:04:27.530Z,94
2023-05-10T22:05:40.519Z,94
2023-05-10T22:06:53.522Z,94
2023-05-10T22:08:06.560Z,94
2023-05-10T22:09:19.520Z,94
2023-05-10T22:10:32.686Z,94
2023-05-10T22:11:45.542Z,95
2023-05-10T22:12:58.503Z,95
2023-05-10T22:14:11.541Z,95
2023-05-10T22:15:24.686Z,95
2023-05-10T22:16:37.268Z,95
2023-05-10T22:17:50.544Z,95
2023-05-10T22:19:03.562Z,95
2023-05-10T22:20:16.674Z,95
2023-05-10T22:21:29.684Z,95
2023-05-10T22:22:42.560Z,95
2023-05-10T22:23:55.510Z,95
2023-05-10T22:25:08.588Z,95
2023-05-10T22:26:21.616Z,95
2023-05-10T22:27:34.541Z,95
2023-05-10T22:28:47.508Z,95
2023-05-10T22:30:00.496Z,95
2023-05-10T22:31:13.530Z,95
2023-05-10T22:32:26.459Z,95
2023-05-10T22:33:39.379Z,96
2023-05-10T22:34:52.599Z,96
2023-05-10T22:38:31.346Z,96
2023-05-10T22:40:57.539Z,96
2023-05-10T22:42:10.261Z,96
2023-05-10T22:45:49.385Z,96
2023-05-10T22:49:28.611Z,96
2023-05-10T22:51:54.388Z,95
2023-05-10T22:54:20.579Z,95
2023-05-10T22:55:33.602Z,96
2023-05-10T22:57:59.520Z,96
2023-05-10T23:00:25.527Z,96
2023-05-10T23:01:38.560Z,96
2023-05-10T23:02:51.346Z,96
2023-05-10T23:04:04.908Z,96
2023-05-10T23:05:17.516Z,96
2023-05-10T23:06:30.500Z,96
2023-05-10T23:10:10.013Z,96
2023-05-10T23:11:22.447Z,96
2023-05-10T23:13:48.391Z,97
2023-05-10T23:15:02.040Z,97
2023-05-10T23:16:14.727Z,97
2023-05-10T23:17:27.562Z,97
2023-05-10T23:23:32.445Z,97
2023-05-10T23:28:24.522Z,98
2023-05-10T23:30:50.756Z,98
2023-05-10T23:33:16.502Z,98
2023-05-10T23:36:56.085Z,98
2023-05-10T23:38:08.407Z,98
2023-05-10T23:40:34.721Z,98
2023-05-10T23:44:13.517Z,98
2023-05-10T23:45:26.586Z,98
2023-05-10T23:47:52.541Z,98
2023-05-10T23:49:05.301Z,98
2023-05-10T23:50:18.915Z,98
2023-05-10T23:51:31.522Z,98
2023-05-10T23:53:57.417Z,98
